Impacts TAF Board
For situational awareness. Not to be used for flight planning purposes.
IDs:

KLVS - Las Vegas Muni, NM, US

Issued at 1736 UTC 08 Aug 2020
Updated at 1955 UTC 08 Aug 2020
Potential Impact None Slight Moderate High
Time1953Z 08/20Z 08/21Z 08/22Z 08/23Z 09/00Z 09/01Z 09/02Z 09/03Z 09/04Z 09/05Z 09/06Z 09/07Z 09/08Z>>
Type OBS PRVL PRVL PRVL PRVL PRVL PRVL PRVL PRVL PRVL PRVL PRVL PRVL PRVL
VIS 10 >6 >6 >6 >6 >6 >6 >6 >6 >6 >6 >6 >6 >6
CIG -- -- -- -- -- 120 120 120 110 110 110 110 110 110
Cover FEW SCT SCT SCT SCT BKN BKN BKN BKN BKN BKN BKN BKN BKN
FltCat VFR VFR VFR VFR VFR VFR VFR VFR VFR VFR VFR VFR VFR VFR
WX -- VCSH VCSH VCSH VCSH VCTS VCTS VCTS -- -- -- -- -- --
WDir 330 220 220 220 220 260 260 260 VRB VRB VRB VRB VRB VRB
WSpd 12 11 11 11 11 12 12 12 6 6 6 6 6 6
WGst 18 19 19 19 19 -- -- -- -- -- -- -- -- --
Raw TAF
KLVS 081736Z 0818/0918 20006KT P6SM SCT110
  FM082000 22011G19KT P6SM VCSH SCT120
  FM090000 26012KT P6SM VCTS BKN120CB
  FM090300 VRB06KT P6SM BKN110
  FM091700 21010KT P6SM SCT120


Raw METAR
KLVS 081953Z AUTO 33012G18KT 10SM FEW110 29/03 A3028 RMK AO2 LTG DSNT NE SLP121 T02940028 $
KLVS 081853Z AUTO VRB03KT 10SM CLR 30/02 A3028 RMK AO2 LTG DSNT NW SLP126 T03000017
KLVS 081753Z AUTO VRB03KT 10SM CLR 28/02 A3030 RMK AO2 SLP133 T02830017 10294 20139 58003
KLVS 081653Z AUTO 10008KT 060V130 10SM CLR 28/04 A3032 RMK AO2 SLP138 T02780039

METAR Board
Radar Display
Forecast Discussion
For situational awareness. Not to be used for flight planning purposes.